createdAt,value
2023-12-30T00:00:20.956Z,464.00
2023-12-30T00:01:20.951Z,466.00
2023-12-30T00:02:20.968Z,465.00
2023-12-30T00:03:20.939Z,466.00
2023-12-30T00:04:20.924Z,466.00
2023-12-30T00:05:20.886Z,466.00
2023-12-30T00:06:20.901Z,465.00
2023-12-30T00:07:20.932Z,465.00
2023-12-30T00:08:20.897Z,466.00
2023-12-30T00:09:20.936Z,465.00
2023-12-30T00:10:21.005Z,462.00
2023-12-30T00:11:20.977Z,463.00
2023-12-30T00:12:21.006Z,464.00
2023-12-30T00:13:21.047Z,464.00
2023-12-30T00:14:21.075Z,466.00
2023-12-30T00:15:21.081Z,466.00
2023-12-30T00:16:21.165Z,467.00
2023-12-30T00:17:21.154Z,466.00
2023-12-30T00:18:21.347Z,465.00
2023-12-30T00:19:21.416Z,465.00
2023-12-30T00:20:21.261Z,463.00
2023-12-30T00:21:21.289Z,463.00
2023-12-30T00:22:21.356Z,463.00
2023-12-30T00:23:21.363Z,462.00
2023-12-30T00:24:21.387Z,463.00
2023-12-30T00:25:21.473Z,464.00
2023-12-30T00:26:21.460Z,462.00
2023-12-30T00:27:21.475Z,460.00
2023-12-30T00:28:21.489Z,459.00
2023-12-30T00:29:21.564Z,460.00
2023-12-30T00:30:21.579Z,463.00
2023-12-30T00:31:21.620Z,461.00
2023-12-30T00:32:21.609Z,458.00
2023-12-30T00:33:21.660Z,457.00
2023-12-30T00:34:21.733Z,457.00
2023-12-30T00:35:21.707Z,456.00
2023-12-30T00:36:21.732Z,455.00
2023-12-30T00:37:21.934Z,456.00
2023-12-30T00:38:24.407Z,456.00
2023-12-30T00:39:21.818Z,455.00
2023-12-30T00:40:26.676Z,455.00
2023-12-30T00:41:22.783Z,455.00
2023-12-30T00:42:21.766Z,457.00
2023-12-30T00:43:21.840Z,456.00
2023-12-30T00:44:23.865Z,458.00
2023-12-30T00:45:21.746Z,456.00
2023-12-30T00:46:21.753Z,455.00
2023-12-30T00:47:21.734Z,455.00
2023-12-30T00:48:21.757Z,455.00
2023-12-30T00:49:21.752Z,459.00
2023-12-30T00:50:21.702Z,459.00
2023-12-30T00:51:21.689Z,459.00
2023-12-30T00:52:22.176Z,460.00
2023-12-30T00:53:21.712Z,462.00
2023-12-30T00:54:22.170Z,463.00
2023-12-30T00:55:21.802Z,462.00
2023-12-30T00:56:21.791Z,464.00
2023-12-30T00:57:21.841Z,466.00
2023-12-30T00:58:21.896Z,464.00
2023-12-30T00:59:22.276Z,465.00
2023-12-30T01:00:21.917Z,467.00
2023-12-30T01:01:21.981Z,465.00
2023-12-30T01:02:21.994Z,465.00
2023-12-30T01:03:22.202Z,462.00
2023-12-30T01:04:22.233Z,461.00
2023-12-30T01:05:22.140Z,462.00
2023-12-30T01:06:22.128Z,464.00
2023-12-30T01:07:22.215Z,463.00
2023-12-30T01:08:22.209Z,463.00
2023-12-30T01:09:22.661Z,464.00
2023-12-30T01:10:22.272Z,461.00
2023-12-30T01:11:22.325Z,461.00
2023-12-30T01:12:22.272Z,461.00
2023-12-30T01:13:22.294Z,460.00
2023-12-30T01:14:22.344Z,462.00
2023-12-30T01:15:22.251Z,463.00
2023-12-30T01:16:22.312Z,462.00
2023-12-30T01:17:22.317Z,460.00
2023-12-30T01:18:22.320Z,459.00
2023-12-30T01:19:22.298Z,460.00
2023-12-30T01:20:22.315Z,460.00
2023-12-30T01:21:22.184Z,459.00
2023-12-30T01:22:22.197Z,458.00
2023-12-30T01:23:22.162Z,460.00
2023-12-30T01:24:22.155Z,459.00
2023-12-30T01:25:22.159Z,458.00
2023-12-30T01:26:22.166Z,458.00
2023-12-30T01:27:22.190Z,459.00
2023-12-30T01:28:22.254Z,461.00
2023-12-30T01:29:22.268Z,461.00
2023-12-30T01:30:22.384Z,461.00
2023-12-30T01:31:22.461Z,458.00
2023-12-30T01:32:22.366Z,457.00
2023-12-30T01:33:22.475Z,455.00
2023-12-30T01:34:22.573Z,452.00
2023-12-30T01:35:22.469Z,451.00
2023-12-30T01:36:22.537Z,449.00
2023-12-30T01:37:22.562Z,449.00
2023-12-30T01:38:22.577Z,451.00
2023-12-30T01:39:22.624Z,454.00
2023-12-30T01:40:22.699Z,453.00
2023-12-30T01:41:22.675Z,453.00
2023-12-30T01:42:22.702Z,453.00
2023-12-30T01:43:22.738Z,455.00
2023-12-30T01:44:22.780Z,457.00
2023-12-30T01:45:22.794Z,456.00
2023-12-30T01:46:22.903Z,459.00
2023-12-30T01:47:22.972Z,458.00
2023-12-30T01:48:22.957Z,458.00
2023-12-30T01:49:22.958Z,457.00
2023-12-30T01:50:22.970Z,455.00
2023-12-30T01:51:25.270Z,455.00
2023-12-30T01:52:23.043Z,455.00
2023-12-30T01:53:23.034Z,456.00
2023-12-30T01:54:22.986Z,455.00
2023-12-30T01:55:23.011Z,456.00
2023-12-30T01:56:22.953Z,457.00
2023-12-30T01:57:22.963Z,452.00
2023-12-30T01:58:22.967Z,452.00
2023-12-30T01:59:22.939Z,451.00
2023-12-30T02:00:22.954Z,452.00
2023-12-30T02:01:23.031Z,452.00
2023-12-30T02:02:22.913Z,451.00
2023-12-30T02:03:22.935Z,451.00
2023-12-30T02:04:22.952Z,450.00
2023-12-30T02:05:22.925Z,449.00
2023-12-30T02:06:22.883Z,448.00
2023-12-30T02:07:22.977Z,448.00
2023-12-30T02:08:22.861Z,449.00
2023-12-30T02:09:22.856Z,450.00
2023-12-30T02:10:22.876Z,449.00
2023-12-30T02:11:22.833Z,451.00
2023-12-30T02:12:22.837Z,455.00
2023-12-30T02:13:22.911Z,453.00
2023-12-30T02:14:23.654Z,452.00
2023-12-30T02:15:23.029Z,452.00
2023-12-30T02:16:22.981Z,454.00
2023-12-30T02:17:22.961Z,456.00
2023-12-30T02:18:23.079Z,456.00
2023-12-30T02:19:23.206Z,457.00
2023-12-30T02:20:23.051Z,458.00
2023-12-30T02:21:23.077Z,456.00
2023-12-30T02:22:23.142Z,456.00
2023-12-30T02:23:23.166Z,457.00
2023-12-30T02:57:47.867Z,454.00
2023-12-30T02:58:23.607Z,453.00
2023-12-30T02:59:22.595Z,452.00
2023-12-30T03:00:22.576Z,448.00
2023-12-30T03:01:22.657Z,450.00
2023-12-30T03:02:22.574Z,449.00
2023-12-30T03:03:22.540Z,449.00
2023-12-30T03:04:22.579Z,448.00
2023-12-30T03:05:22.654Z,448.00
2023-12-30T03:06:22.613Z,449.00
2023-12-30T03:07:22.529Z,451.00
2023-12-30T03:08:22.467Z,451.00
2023-12-30T03:09:22.466Z,453.00
2023-12-30T03:10:22.588Z,453.00
2023-12-30T03:11:22.456Z,453.00
2023-12-30T03:12:22.433Z,455.00
2023-12-30T03:13:22.470Z,456.00
2023-12-30T03:14:22.438Z,455.00
2023-12-30T03:15:22.411Z,453.00
2023-12-30T03:16:22.471Z,452.00
2023-12-30T03:17:22.445Z,453.00
2023-12-30T03:18:22.427Z,454.00
2023-12-30T03:19:22.409Z,455.00
2023-12-30T03:20:22.364Z,455.00
2023-12-30T03:21:22.336Z,452.00
2023-12-30T03:22:22.346Z,448.00
2023-12-30T03:23:22.343Z,446.00
2023-12-30T03:24:22.323Z,442.00
2023-12-30T03:25:22.344Z,441.00
2023-12-30T03:26:22.286Z,441.00
2023-12-30T03:27:22.279Z,443.00
2023-12-30T03:28:22.345Z,442.00
2023-12-30T03:29:22.318Z,441.00
2023-12-30T03:30:22.312Z,444.00
2023-12-30T03:31:22.388Z,442.00
2023-12-30T03:32:22.327Z,441.00
2023-12-30T03:33:22.372Z,443.00
2023-12-30T03:34:22.395Z,444.00
2023-12-30T03:35:22.302Z,443.00
2023-12-30T03:36:22.325Z,443.00
2023-12-30T03:37:22.381Z,441.00
2023-12-30T03:38:22.297Z,441.00
2023-12-30T03:39:22.308Z,440.00
2023-12-30T03:40:22.322Z,441.00
2023-12-30T03:41:22.308Z,443.00
2023-12-30T03:42:22.322Z,441.00
2023-12-30T03:43:22.356Z,441.00
2023-12-30T03:44:22.284Z,441.00
2023-12-30T03:45:22.293Z,442.00
2023-12-30T03:46:22.394Z,442.00
2023-12-30T03:47:22.310Z,443.00
2023-12-30T03:48:22.354Z,443.00
2023-12-30T03:49:22.495Z,442.00
2023-12-30T03:50:22.293Z,443.00
2023-12-30T03:51:22.299Z,442.00
2023-12-30T03:52:22.384Z,442.00
2023-12-30T03:53:22.302Z,439.00
2023-12-30T03:54:22.300Z,439.00
2023-12-30T03:55:22.304Z,439.00
2023-12-30T03:56:22.274Z,438.00
2023-12-30T03:57:22.270Z,439.00
2023-12-30T03:58:22.278Z,440.00
2023-12-30T03:59:22.269Z,440.00
2023-12-30T04:00:22.250Z,440.00
2023-12-30T04:01:22.285Z,441.00
2023-12-30T04:02:22.382Z,440.00
2023-12-30T04:03:22.323Z,439.00
2023-12-30T04:04:22.353Z,443.00
2023-12-30T04:05:22.221Z,442.00
2023-12-30T04:06:22.202Z,444.00
2023-12-30T04:07:22.245Z,444.00
2023-12-30T04:08:22.199Z,445.00
2023-12-30T04:09:22.212Z,445.00
2023-12-30T04:10:22.227Z,447.00
2023-12-30T04:11:22.217Z,448.00
2023-12-30T04:12:22.182Z,445.00
2023-12-30T04:13:22.224Z,444.00
2023-12-30T04:14:22.176Z,447.00
2023-12-30T04:15:22.166Z,445.00
2023-12-30T04:16:22.195Z,445.00
2023-12-30T04:17:22.201Z,444.00
2023-12-30T04:18:22.233Z,444.00
2023-12-30T04:19:22.267Z,443.00
2023-12-30T04:20:22.150Z,445.00
2023-12-30T04:21:22.129Z,446.00
2023-12-30T04:22:22.169Z,445.00
2023-12-30T04:23:22.119Z,444.00
2023-12-30T04:24:22.112Z,442.00
2023-12-30T04:25:22.097Z,442.00
2023-12-30T04:26:22.093Z,442.00
2023-12-30T04:27:22.102Z,444.00
2023-12-30T04:28:22.106Z,445.00
2023-12-30T04:29:22.086Z,445.00
2023-12-30T04:30:22.124Z,446.00
2023-12-30T04:31:22.087Z,445.00
2023-12-30T04:32:22.105Z,445.00
2023-12-30T04:33:22.071Z,445.00
2023-12-30T04:34:22.086Z,444.00
2023-12-30T04:35:22.022Z,442.00
2023-12-30T04:36:22.019Z,440.00
2023-12-30T04:37:22.083Z,440.00
2023-12-30T04:38:22.049Z,439.00
2023-12-30T04:39:22.080Z,437.00
2023-12-30T04:40:29.637Z,438.00
2023-12-30T04:41:29.406Z,437.00
2023-12-30T04:42:29.447Z,438.00
2023-12-30T04:43:29.485Z,440.00
2023-12-30T04:44:29.527Z,443.00
2023-12-30T04:45:29.530Z,443.00
2023-12-30T04:46:29.640Z,443.00
2023-12-30T04:47:29.621Z,444.00
2023-12-30T04:48:29.692Z,448.00
2023-12-30T04:49:29.721Z,449.00
2023-12-30T04:50:29.674Z,447.00
2023-12-30T04:51:29.709Z,445.00
2023-12-30T04:52:29.796Z,442.00
2023-12-30T04:53:29.790Z,442.00
2023-12-30T04:54:31.935Z,442.00
2023-12-30T04:55:29.943Z,439.00
2023-12-30T04:56:29.834Z,439.00
2023-12-30T04:57:29.848Z,440.00
2023-12-30T04:58:29.888Z,441.00
2023-12-30T04:59:33.022Z,440.00
2023-12-30T05:00:29.940Z,437.00
2023-12-30T05:01:30.017Z,437.00
2023-12-30T05:02:29.985Z,438.00
2023-12-30T05:03:30.083Z,437.00
2023-12-30T05:04:30.709Z,436.00
2023-12-30T05:05:30.089Z,435.00
2023-12-30T05:06:30.082Z,434.00
2023-12-30T05:07:30.205Z,432.00
2023-12-30T05:08:30.134Z,433.00
2023-12-30T05:09:30.152Z,432.00
2023-12-30T05:10:30.196Z,431.00
2023-12-30T05:11:30.214Z,430.00
2023-12-30T05:12:30.244Z,432.00
2023-12-30T05:13:30.321Z,431.00
2023-12-30T05:14:30.317Z,430.00
2023-12-30T05:15:30.416Z,432.00
2023-12-30T05:16:30.569Z,433.00
2023-12-30T05:17:30.601Z,434.00
2023-12-30T05:18:30.656Z,434.00
2023-12-30T05:19:30.688Z,435.00
2023-12-30T05:20:30.713Z,434.00
2023-12-30T05:21:30.780Z,433.00
2023-12-30T05:22:30.910Z,434.00
2023-12-30T05:23:30.922Z,434.00
2023-12-30T05:24:30.984Z,434.00
2023-12-30T05:25:31.087Z,436.00
2023-12-30T05:26:31.131Z,437.00
2023-12-30T05:27:31.193Z,435.00
2023-12-30T05:28:31.307Z,437.00
2023-12-30T05:29:31.333Z,439.00
2023-12-30T05:30:31.464Z,437.00
2023-12-30T05:31:31.491Z,437.00
2023-12-30T05:32:31.573Z,436.00
2023-12-30T05:33:31.714Z,438.00
2023-12-30T05:34:31.759Z,438.00
2023-12-30T05:35:31.729Z,438.00
2023-12-30T05:36:31.818Z,441.00
2023-12-30T05:37:32.025Z,440.00
2023-12-30T05:38:31.944Z,438.00
2023-12-30T05:39:32.039Z,438.00
2023-12-30T05:40:32.045Z,438.00
2023-12-30T05:41:32.061Z,440.00
2023-12-30T05:42:32.080Z,442.00
2023-12-30T05:43:32.156Z,440.00
2023-12-30T05:44:32.140Z,440.00
2023-12-30T05:45:32.153Z,442.00
2023-12-30T05:46:32.324Z,443.00
2023-12-30T05:47:32.226Z,446.00
2023-12-30T05:48:32.332Z,444.00
2023-12-30T05:49:32.345Z,441.00
2023-12-30T05:50:32.290Z,441.00
2023-12-30T05:51:32.335Z,443.00
2023-12-30T05:52:32.422Z,445.00
2023-12-30T05:53:32.373Z,449.00
2023-12-30T05:54:32.412Z,450.00
2023-12-30T05:55:32.533Z,448.00
2023-12-30T05:56:32.493Z,450.00
2023-12-30T05:57:34.637Z,449.00
2023-12-30T05:58:32.678Z,448.00
2023-12-30T05:59:32.615Z,448.00
2023-12-30T06:00:32.671Z,448.00
2023-12-30T06:01:32.777Z,446.00
2023-12-30T06:02:32.689Z,448.00
2023-12-30T06:03:32.730Z,447.00
2023-12-30T06:04:32.823Z,447.00
2023-12-30T06:05:32.787Z,447.00
2023-12-30T06:06:33.222Z,445.00
2023-12-30T06:07:32.913Z,445.00
2023-12-30T06:08:32.872Z,446.00
2023-12-30T06:09:32.906Z,448.00
2023-12-30T06:10:32.976Z,447.00
2023-12-30T06:11:32.963Z,446.00
2023-12-30T06:12:32.978Z,445.00
2023-12-30T06:13:33.040Z,445.00
2023-12-30T06:14:33.097Z,445.00
2023-12-30T06:15:33.058Z,445.00
2023-12-30T06:16:33.093Z,444.00
2023-12-30T06:17:33.198Z,443.00
2023-12-30T06:18:33.638Z,442.00
2023-12-30T06:19:33.182Z,440.00
2023-12-30T06:20:33.242Z,439.00
2023-12-30T06:21:33.243Z,439.00
2023-12-30T06:22:33.352Z,438.00
2023-12-30T06:23:33.324Z,440.00
2023-12-30T06:24:33.358Z,443.00
2023-12-30T06:25:33.381Z,444.00
2023-12-30T06:26:33.412Z,448.00
2023-12-30T06:27:33.436Z,449.00
2023-12-30T06:28:33.554Z,451.00
2023-12-30T06:29:35.327Z,451.00
2023-12-30T06:30:33.566Z,450.00
2023-12-30T06:31:33.596Z,449.00
2023-12-30T06:32:33.707Z,452.00
2023-12-30T06:33:33.816Z,451.00
2023-12-30T06:34:34.150Z,451.00
2023-12-30T06:35:33.868Z,452.00
2023-12-30T06:36:33.935Z,452.00
2023-12-30T06:37:34.082Z,454.00
2023-12-30T06:38:33.997Z,453.00
2023-12-30T06:39:34.030Z,452.00
2023-12-30T06:40:34.196Z,452.00
2023-12-30T06:41:34.089Z,452.00
2023-12-30T06:42:34.147Z,449.00
2023-12-30T06:43:34.232Z,448.00
2023-12-30T06:44:34.260Z,448.00
2023-12-30T06:45:34.221Z,449.00
2023-12-30T06:46:34.304Z,448.00
2023-12-30T06:47:34.299Z,448.00
2023-12-30T06:48:34.355Z,444.00
2023-12-30T06:49:34.354Z,444.00
2023-12-30T06:50:34.359Z,444.00
2023-12-30T06:51:34.385Z,446.00
2023-12-30T06:52:34.460Z,447.00
2023-12-30T06:53:34.454Z,446.00
2023-12-30T06:54:34.477Z,442.00
2023-12-30T06:55:38.924Z,442.00
2023-12-30T06:56:35.552Z,443.00
2023-12-30T06:57:34.572Z,445.00
2023-12-30T06:58:34.673Z,445.00
2023-12-30T06:59:34.635Z,446.00
2023-12-30T07:00:34.671Z,444.00
2023-12-30T07:01:34.729Z,444.00
2023-12-30T07:02:34.727Z,446.00
2023-12-30T07:03:34.857Z,447.00
2023-12-30T07:04:34.854Z,446.00
2023-12-30T07:05:34.896Z,444.00
2023-12-30T07:06:34.844Z,447.00
2023-12-30T07:07:35.025Z,448.00
2023-12-30T07:08:34.918Z,446.00
2023-12-30T07:09:34.962Z,446.00
2023-12-30T07:10:35.011Z,445.00
2023-12-30T07:11:34.998Z,446.00
2023-12-30T07:12:35.037Z,447.00
2023-12-30T07:13:35.179Z,448.00
2023-12-30T07:14:35.141Z,448.00
2023-12-30T07:15:35.141Z,445.00
2023-12-30T07:16:35.202Z,446.00
2023-12-30T07:17:35.217Z,451.00
2023-12-30T07:18:35.245Z,452.00
2023-12-30T07:19:35.274Z,453.00
2023-12-30T07:20:35.309Z,452.00
2023-12-30T07:21:35.315Z,454.00
2023-12-30T07:22:35.371Z,452.00
2023-12-30T07:23:35.380Z,451.00
2023-12-30T07:24:35.407Z,451.00
2023-12-30T07:25:35.579Z,454.00
2023-12-30T07:26:35.477Z,455.00
2023-12-30T07:27:35.516Z,452.00
2023-12-30T07:28:35.597Z,453.00
2023-12-30T07:29:35.566Z,451.00
2023-12-30T07:30:35.658Z,450.00
2023-12-30T07:31:35.762Z,449.00
2023-12-30T07:32:35.760Z,449.00
2023-12-30T07:33:35.765Z,449.00
2023-12-30T07:34:35.817Z,450.00
2023-12-30T07:35:35.734Z,451.00
2023-12-30T07:36:35.776Z,450.00
2023-12-30T07:37:35.900Z,450.00
2023-12-30T07:38:35.887Z,449.00
2023-12-30T07:39:35.853Z,447.00
2023-12-30T07:40:36.015Z,449.00
2023-12-30T07:41:35.936Z,450.00
2023-12-30T07:42:35.962Z,453.00
2023-12-30T07:43:36.029Z,454.00
2023-12-30T07:44:36.038Z,454.00
2023-12-30T07:45:36.089Z,455.00
2023-12-30T07:46:36.154Z,454.00
2023-12-30T07:47:36.165Z,452.00
2023-12-30T07:48:36.270Z,450.00
2023-12-30T07:49:36.328Z,450.00
2023-12-30T07:50:36.240Z,451.00
2023-12-30T07:51:36.283Z,451.00
2023-12-30T07:52:36.350Z,451.00
2023-12-30T07:53:36.374Z,448.00
2023-12-30T07:54:36.390Z,448.00
2023-12-30T07:55:36.474Z,448.00
2023-12-30T07:56:36.447Z,449.00
2023-12-30T07:57:36.472Z,450.00
2023-12-30T07:58:36.553Z,450.00
2023-12-30T07:59:36.553Z,450.00
2023-12-30T08:00:36.606Z,450.00
2023-12-30T08:01:36.629Z,451.00
2023-12-30T08:02:36.672Z,452.00
2023-12-30T08:03:36.683Z,453.00
2023-12-30T08:04:36.779Z,452.00
2023-12-30T08:05:36.751Z,452.00
2023-12-30T08:06:36.766Z,453.00
2023-12-30T08:07:36.876Z,454.00
2023-12-30T08:08:36.843Z,452.00
2023-12-30T08:09:36.843Z,455.00
2023-12-30T08:10:36.910Z,454.00
2023-12-30T08:11:49.774Z,452.00
2023-12-30T08:12:38.149Z,450.00
2023-12-30T08:13:37.012Z,450.00
2023-12-30T08:14:37.027Z,450.00
2023-12-30T08:15:37.085Z,451.00
2023-12-30T08:16:37.142Z,450.00
2023-12-30T08:17:37.317Z,451.00
2023-12-30T08:18:37.270Z,453.00
2023-12-30T08:19:37.176Z,451.00
2023-12-30T08:20:37.182Z,450.00
2023-12-30T08:21:37.237Z,451.00
2023-12-30T08:22:37.317Z,453.00
2023-12-30T08:23:37.279Z,456.00
2023-12-30T08:24:37.331Z,451.00
2023-12-30T08:25:37.403Z,451.00
2023-12-30T08:26:37.390Z,452.00
2023-12-30T08:27:37.400Z,451.00
2023-12-30T08:28:37.563Z,454.00
2023-12-30T08:29:37.462Z,453.00
2023-12-30T08:30:37.536Z,454.00
2023-12-30T08:31:37.548Z,454.00
2023-12-30T08:32:37.563Z,454.00
2023-12-30T08:33:37.593Z,455.00
2023-12-30T08:34:37.609Z,455.00
2023-12-30T08:35:37.619Z,456.00
2023-12-30T08:36:37.691Z,456.00
2023-12-30T08:37:37.907Z,457.00
2023-12-30T08:38:37.676Z,456.00
2023-12-30T08:39:37.723Z,455.00
2023-12-30T08:40:37.884Z,454.00
2023-12-30T08:41:37.752Z,456.00
2023-12-30T08:42:37.785Z,454.00
2023-12-30T08:43:37.841Z,454.00
2023-12-30T08:44:37.832Z,454.00
2023-12-30T08:45:37.872Z,452.00
2023-12-30T08:46:38.096Z,451.00
2023-12-30T08:47:37.939Z,451.00
2023-12-30T08:48:38.112Z,450.00
2023-12-30T08:49:37.974Z,451.00
2023-12-30T08:50:38.017Z,451.00
2023-12-30T08:51:38.003Z,451.00
2023-12-30T08:52:38.094Z,454.00
2023-12-30T08:53:38.101Z,449.00
2023-12-30T08:54:38.091Z,449.00
2023-12-30T08:55:38.154Z,448.00
2023-12-30T08:56:38.160Z,448.00
2023-12-30T08:57:38.171Z,451.00
2023-12-30T08:58:38.244Z,452.00
2023-12-30T08:59:38.195Z,448.00
2023-12-30T09:00:38.227Z,449.00
2023-12-30T09:01:38.243Z,448.00
2023-12-30T09:02:38.245Z,448.00
2023-12-30T09:03:38.301Z,449.00
2023-12-30T09:04:38.279Z,447.00
2023-12-30T09:05:38.354Z,447.00
2023-12-30T09:06:38.275Z,447.00
2023-12-30T09:07:38.335Z,449.00
2023-12-30T09:08:38.242Z,453.00
2023-12-30T09:09:38.280Z,453.00
2023-12-30T09:10:38.486Z,455.00
2023-12-30T09:11:38.420Z,453.00
2023-12-30T09:12:38.429Z,453.00
2023-12-30T09:13:38.524Z,454.00
2023-12-30T09:14:38.442Z,455.00
2023-12-30T09:15:38.460Z,457.00
2023-12-30T09:16:38.645Z,457.00
2023-12-30T09:17:38.534Z,455.00
2023-12-30T09:18:38.561Z,456.00
2023-12-30T09:19:38.673Z,456.00
2023-12-30T09:20:38.480Z,453.00
2023-12-30T09:21:38.488Z,455.00
2023-12-30T09:22:38.514Z,458.00
2023-12-30T09:23:38.473Z,459.00
2023-12-30T09:24:38.499Z,457.00
2023-12-30T09:25:38.602Z,458.00
2023-12-30T09:26:38.476Z,458.00
2023-12-30T09:27:38.483Z,457.00
2023-12-30T09:28:38.570Z,456.00
2023-12-30T09:29:38.479Z,454.00
2023-12-30T09:30:38.496Z,454.00
2023-12-30T09:31:38.496Z,455.00
2023-12-30T09:32:38.492Z,455.00
2023-12-30T09:33:38.592Z,456.00
2023-12-30T09:34:42.125Z,458.00
2023-12-30T09:35:39.494Z,460.00
2023-12-30T09:36:38.426Z,460.00
2023-12-30T09:37:38.494Z,460.00
2023-12-30T09:38:38.422Z,463.00
2023-12-30T09:39:38.409Z,462.00
2023-12-30T09:40:38.518Z,461.00
2023-12-30T09:41:38.387Z,460.00
2023-12-30T09:42:38.385Z,460.00
2023-12-30T09:43:38.394Z,462.00
2023-12-30T09:44:38.374Z,461.00
2023-12-30T09:45:38.368Z,458.00
2023-12-30T09:46:38.369Z,458.00
2023-12-30T09:47:38.395Z,458.00
2023-12-30T09:48:38.439Z,458.00
2023-12-30T09:49:38.436Z,457.00
2023-12-30T09:50:38.361Z,454.00
2023-12-30T09:51:38.316Z,457.00
2023-12-30T09:52:38.358Z,458.00
2023-12-30T09:53:38.291Z,457.00
2023-12-30T09:54:45.718Z,457.00
2023-12-30T09:55:39.467Z,458.00
2023-12-30T09:56:38.283Z,455.00
2023-12-30T09:57:38.269Z,455.00
2023-12-30T09:58:38.345Z,456.00
2023-12-30T09:59:38.284Z,456.00
2023-12-30T10:00:38.286Z,455.00
2023-12-30T10:01:40.828Z,455.00
2023-12-30T10:02:38.275Z,456.00
2023-12-30T10:03:38.308Z,457.00
2023-12-30T10:04:38.334Z,457.00
2023-12-30T10:05:38.395Z,458.00
2023-12-30T10:06:38.294Z,457.00
2023-12-30T10:07:38.375Z,457.00
2023-12-30T10:08:38.313Z,458.00
2023-12-30T10:09:38.328Z,458.00
2023-12-30T10:10:38.424Z,457.00
2023-12-30T10:11:38.314Z,458.00
2023-12-30T10:12:38.307Z,458.00
2023-12-30T10:13:38.375Z,457.00
2023-12-30T10:14:38.341Z,456.00
2023-12-30T10:15:38.343Z,457.00
2023-12-30T10:16:38.442Z,458.00
2023-12-30T10:17:38.417Z,458.00
2023-12-30T10:18:38.417Z,457.00
2023-12-30T10:19:38.393Z,459.00
2023-12-30T10:20:38.319Z,460.00
2023-12-30T10:21:38.421Z,460.00
2023-12-30T10:22:38.413Z,462.00
2023-12-30T10:23:38.350Z,461.00
2023-12-30T10:24:38.366Z,459.00
2023-12-30T10:25:38.504Z,460.00
2023-12-30T10:26:38.362Z,460.00
2023-12-30T10:27:38.343Z,459.00
2023-12-30T10:28:38.410Z,460.00
2023-12-30T10:29:46.907Z,459.00
2023-12-30T10:30:39.388Z,455.00
2023-12-30T10:31:38.366Z,452.00
2023-12-30T10:32:38.424Z,454.00
2023-12-30T10:33:38.415Z,455.00
2023-12-30T10:34:38.359Z,456.00
2023-12-30T10:35:38.412Z,458.00
2023-12-30T10:36:38.331Z,459.00
2023-12-30T10:37:38.383Z,458.00
2023-12-30T10:38:38.346Z,459.00
2023-12-30T10:39:38.334Z,458.00
2023-12-30T10:40:38.368Z,460.00
2023-12-30T10:41:38.341Z,461.00
2023-12-30T10:42:38.332Z,462.00
2023-12-30T10:43:38.430Z,462.00
2023-12-30T10:44:38.337Z,462.00
2023-12-30T10:45:38.494Z,463.00
2023-12-30T10:46:38.471Z,464.00
2023-12-30T10:47:38.366Z,463.00
2023-12-30T10:48:38.320Z,462.00
2023-12-30T10:49:38.423Z,461.00
2023-12-30T10:50:38.360Z,461.00
2023-12-30T10:51:38.349Z,460.00
2023-12-30T10:52:38.470Z,461.00
2023-12-30T10:53:38.331Z,460.00
2023-12-30T10:54:38.346Z,459.00
2023-12-30T10:55:38.370Z,457.00
2023-12-30T10:56:38.339Z,455.00
2023-12-30T10:57:38.440Z,455.00
2023-12-30T10:58:38.492Z,455.00
2023-12-30T10:59:38.439Z,452.00
2023-12-30T11:00:38.351Z,450.00
2023-12-30T11:01:38.353Z,450.00
2023-12-30T11:02:38.317Z,451.00
2023-12-30T11:03:38.324Z,453.00
2023-12-30T11:04:38.346Z,453.00
2023-12-30T11:05:38.403Z,453.00
2023-12-30T11:06:38.379Z,453.00
2023-12-30T11:07:38.438Z,450.00
2023-12-30T11:08:38.293Z,451.00
2023-12-30T11:09:38.335Z,451.00
2023-12-30T11:10:38.352Z,453.00
2023-12-30T11:11:38.294Z,454.00
2023-12-30T11:12:38.386Z,455.00
2023-12-30T11:13:38.331Z,454.00
2023-12-30T11:14:38.314Z,456.00
2023-12-30T11:15:38.278Z,456.00
2023-12-30T11:16:38.304Z,453.00
2023-12-30T11:17:38.306Z,452.00
2023-12-30T11:18:38.350Z,450.00
2023-12-30T11:19:38.417Z,453.00
2023-12-30T11:20:38.320Z,454.00
2023-12-30T11:21:38.271Z,454.00
2023-12-30T11:22:38.331Z,455.00
2023-12-30T11:23:38.276Z,455.00
2023-12-30T11:24:38.262Z,457.00
2023-12-30T11:25:38.295Z,460.00
2023-12-30T11:26:38.935Z,460.00
2023-12-30T11:27:38.287Z,461.00
2023-12-30T11:28:38.375Z,459.00
2023-12-30T11:29:38.233Z,460.00
2023-12-30T11:30:38.264Z,460.00
2023-12-30T11:31:38.269Z,462.00
2023-12-30T11:32:38.360Z,459.00
2023-12-30T11:33:38.291Z,461.00
2023-12-30T11:34:38.224Z,465.00
2023-12-30T11:35:38.206Z,464.00
2023-12-30T11:36:38.194Z,464.00
2023-12-30T11:37:38.254Z,463.00
2023-12-30T11:38:38.180Z,460.00
2023-12-30T11:39:38.186Z,460.00
2023-12-30T11:40:38.201Z,461.00
2023-12-30T11:41:38.189Z,464.00
2023-12-30T11:42:45.595Z,463.00
2023-12-30T11:43:39.255Z,465.00
2023-12-30T11:44:38.196Z,465.00
2023-12-30T11:45:38.169Z,466.00
2023-12-30T11:46:38.450Z,463.00
2023-12-30T11:47:38.208Z,465.00
2023-12-30T11:48:38.170Z,466.00
2023-12-30T11:49:38.170Z,463.00
2023-12-30T11:50:38.148Z,461.00
2023-12-30T11:51:38.153Z,463.00
2023-12-30T11:52:38.275Z,464.00
2023-12-30T11:53:38.137Z,464.00
2023-12-30T11:54:38.160Z,462.00
2023-12-30T11:55:38.141Z,461.00
2023-12-30T11:56:38.123Z,461.00
2023-12-30T11:57:38.099Z,459.00
2023-12-30T11:58:38.235Z,460.00
2023-12-30T11:59:38.217Z,457.00
2023-12-30T12:00:38.270Z,457.00
2023-12-30T12:01:38.278Z,453.00
2023-12-30T12:02:38.138Z,452.00
2023-12-30T12:03:38.202Z,454.00
2023-12-30T12:04:38.318Z,455.00
2023-12-30T12:05:38.156Z,455.00
2023-12-30T12:06:38.139Z,455.00
2023-12-30T12:07:38.251Z,456.00
2023-12-30T12:08:38.075Z,455.00
2023-12-30T12:09:38.082Z,455.00
2023-12-30T12:10:38.112Z,455.00
2023-12-30T12:11:38.066Z,454.00
2023-12-30T12:12:38.055Z,452.00
2023-12-30T12:13:38.083Z,452.00
2023-12-30T12:14:38.091Z,453.00
2023-12-30T12:15:38.151Z,453.00
2023-12-30T12:16:38.359Z,455.00
2023-12-30T12:17:38.324Z,455.00
2023-12-30T12:18:38.250Z,458.00
2023-12-30T12:19:38.402Z,461.00
2023-12-30T12:20:38.258Z,463.00
2023-12-30T12:21:38.288Z,463.00
2023-12-30T12:22:38.383Z,462.00
2023-12-30T12:23:38.335Z,462.00
2023-12-30T12:24:38.357Z,461.00
2023-12-30T12:25:38.391Z,463.00
2023-12-30T12:26:38.388Z,463.00
2023-12-30T12:27:38.414Z,462.00
2023-12-30T12:28:38.517Z,462.00
2023-12-30T12:29:38.454Z,463.00
2023-12-30T12:30:38.500Z,460.00
2023-12-30T12:31:38.543Z,459.00
2023-12-30T12:32:38.624Z,462.00
2023-12-30T12:33:38.549Z,465.00
2023-12-30T12:34:38.614Z,467.00
2023-12-30T12:35:38.522Z,466.00
2023-12-30T12:36:38.478Z,467.00
2023-12-30T12:37:38.517Z,466.00
2023-12-30T12:38:38.544Z,466.00
2023-12-30T12:39:38.882Z,467.00
2023-12-30T12:40:38.462Z,467.00
2023-12-30T12:41:38.471Z,469.00
2023-12-30T12:42:38.392Z,471.00
2023-12-30T12:43:38.437Z,472.00
2023-12-30T12:44:48.110Z,472.00
2023-12-30T12:45:38.350Z,473.00
2023-12-30T12:46:38.377Z,475.00
2023-12-30T12:47:39.163Z,476.00
2023-12-30T12:48:38.360Z,476.00
2023-12-30T12:49:38.309Z,477.00
2023-12-30T12:50:38.285Z,476.00
2023-12-30T12:51:38.306Z,474.00
2023-12-30T12:52:38.324Z,474.00
2023-12-30T12:53:38.261Z,474.00
2023-12-30T12:54:43.364Z,472.00
2023-12-30T12:55:38.307Z,474.00
2023-12-30T12:56:38.207Z,475.00
2023-12-30T12:57:38.302Z,476.00
2023-12-30T12:58:38.310Z,478.00
2023-12-30T12:59:38.202Z,477.00
2023-12-30T13:00:38.191Z,476.00
2023-12-30T13:01:38.216Z,477.00